createdAt,value
2022-09-24T00:01:30.729Z,57.60
2022-09-24T00:04:02.903Z,57.60
2022-09-24T00:06:36.385Z,57.60
2022-09-24T00:09:06.747Z,57.80
2022-09-24T00:11:35.781Z,57.80
2022-09-24T00:14:06.877Z,57.80
2022-09-24T00:16:36.654Z,57.80
2022-09-24T00:19:06.344Z,57.90
2022-09-24T00:21:37.358Z,58.00
2022-09-24T00:24:11.184Z,58.20
2022-09-24T00:26:51.166Z,58.20
2022-09-24T00:29:22.040Z,58.10
2022-09-24T00:31:53.247Z,58.20
2022-09-24T00:34:22.893Z,58.30
2022-09-24T00:36:53.354Z,58.30
2022-09-24T00:39:23.377Z,58.30
2022-09-24T00:41:52.173Z,58.20
2022-09-24T00:44:53.992Z,58.20
2022-09-24T00:47:39.483Z,58.30
2022-09-24T00:50:16.772Z,58.50
2022-09-24T00:52:51.602Z,58.50
2022-09-24T00:55:24.625Z,58.50
2022-09-24T00:57:57.822Z,58.50
2022-09-24T01:00:27.791Z,58.50
2022-09-24T01:03:02.616Z,58.40
2022-09-24T01:05:31.822Z,58.50
2022-09-24T01:08:00.745Z,58.50
2022-09-24T01:10:50.871Z,58.60
2022-09-24T01:13:42.869Z,58.70
2022-09-24T01:16:23.421Z,58.70
2022-09-24T01:18:59.599Z,58.50
2022-09-24T01:21:38.710Z,58.60
2022-09-24T01:24:28.181Z,58.70
2022-09-24T01:27:04.770Z,58.90
2022-09-24T01:29:43.917Z,58.80
2022-09-24T01:32:20.032Z,58.80
2022-09-24T01:34:52.202Z,58.90
2022-09-24T01:37:25.483Z,58.90
2022-09-24T01:39:57.234Z,58.80
2022-09-24T01:42:29.518Z,58.70
2022-09-24T01:45:00.746Z,58.80
2022-09-24T01:47:34.987Z,58.80
2022-09-24T01:50:05.790Z,58.90
2022-09-24T01:52:41.951Z,58.90
2022-09-24T01:55:16.818Z,59.00
2022-09-24T01:57:49.803Z,59.10
2022-09-24T02:00:22.194Z,59.10
2022-09-24T02:02:57.480Z,59.20
2022-09-24T02:05:32.278Z,59.10
2022-09-24T02:08:06.868Z,59.70
2022-09-24T02:10:42.306Z,59.20
2022-09-24T02:13:14.438Z,59.30
2022-09-24T02:15:49.006Z,59.20
2022-09-24T02:18:22.617Z,59.40
2022-09-24T02:20:53.659Z,59.40
2022-09-24T02:23:25.692Z,59.20
2022-09-24T02:25:58.692Z,59.30
2022-09-24T02:28:28.123Z,59.40
2022-09-24T02:31:09.393Z,59.40
2022-09-24T02:33:58.752Z,59.50
2022-09-24T02:36:27.800Z,59.50
2022-09-24T02:38:56.775Z,59.40
2022-09-24T02:41:26.982Z,59.40
2022-09-24T02:43:55.928Z,59.40
2022-09-24T02:46:26.308Z,59.40
2022-09-24T02:48:55.241Z,59.50
2022-09-24T02:51:23.904Z,59.50
2022-09-24T02:53:53.041Z,59.60
2022-09-24T02:56:21.980Z,59.60
2022-09-24T02:58:50.783Z,59.50
2022-09-24T03:01:19.657Z,59.50
2022-09-24T03:03:49.971Z,59.40
2022-09-24T03:06:18.768Z,59.50
2022-09-24T03:08:48.037Z,59.40
2022-09-24T03:11:18.925Z,59.50
2022-09-24T03:13:48.632Z,59.60
2022-09-24T03:16:18.536Z,59.60
2022-09-24T03:18:49.533Z,59.70
2022-09-24T03:21:20.349Z,59.80
2022-09-24T03:23:49.500Z,59.90
2022-09-24T03:26:18.663Z,60.00
2022-09-24T03:28:47.531Z,60.00
2022-09-24T03:31:15.377Z,59.90
2022-09-24T03:33:45.680Z,60.00
2022-09-24T03:36:17.362Z,59.90
2022-09-24T03:38:48.604Z,59.90
2022-09-24T03:41:18.749Z,59.90
2022-09-24T03:43:47.604Z,59.90
2022-09-24T03:46:17.305Z,59.90
2022-09-24T03:48:47.251Z,60.00
2022-09-24T03:51:19.957Z,60.00
2022-09-24T03:53:49.390Z,60.20
2022-09-24T03:56:18.246Z,60.10
2022-09-24T03:58:48.399Z,60.20
2022-09-24T04:01:21.264Z,60.10
2022-09-24T04:03:51.135Z,60.10
2022-09-24T04:06:25.787Z,60.20
2022-09-24T04:08:55.505Z,60.30
2022-09-24T04:11:24.946Z,60.50
2022-09-24T04:13:53.897Z,60.50
2022-09-24T04:16:22.763Z,60.50
2022-09-24T04:18:51.738Z,60.50
2022-09-24T04:21:22.052Z,60.40
2022-09-24T04:23:51.276Z,60.40
2022-09-24T04:26:21.010Z,60.30
2022-09-24T04:28:50.484Z,60.40
2022-09-24T04:31:19.743Z,60.50
2022-09-24T04:33:48.447Z,60.70
2022-09-24T04:36:17.733Z,60.90
2022-09-24T04:38:48.480Z,61.00
2022-09-24T04:41:17.395Z,60.90
2022-09-24T04:43:46.578Z,60.90
2022-09-24T04:46:15.589Z,60.90
2022-09-24T04:48:44.703Z,60.90
2022-09-24T04:51:13.606Z,61.00
2022-09-24T04:53:42.403Z,61.00
2022-09-24T04:56:12.888Z,61.00
2022-09-24T04:58:42.276Z,61.00
2022-09-24T05:01:13.310Z,60.90
2022-09-24T05:03:43.674Z,60.90
2022-09-24T05:06:12.623Z,61.00
2022-09-24T05:08:41.519Z,61.00
2022-09-24T05:11:13.082Z,61.00
2022-09-24T05:13:41.790Z,61.00
2022-09-24T05:16:10.621Z,61.00
2022-09-24T05:18:39.647Z,61.00
2022-09-24T05:21:09.038Z,61.10
2022-09-24T05:23:37.855Z,61.20
2022-09-24T05:26:36.082Z,61.20
2022-09-24T05:29:06.634Z,61.10
2022-09-24T05:31:35.510Z,61.10
2022-09-24T05:34:05.047Z,61.20
2022-09-24T05:36:34.198Z,61.30
2022-09-24T05:39:03.175Z,61.30
2022-09-24T05:41:32.272Z,61.30
2022-09-24T05:44:01.059Z,61.30
2022-09-24T05:46:31.558Z,61.40
2022-09-24T05:49:00.738Z,61.50
2022-09-24T05:51:29.703Z,61.50
2022-09-24T05:53:58.591Z,61.30
2022-09-24T05:56:27.563Z,61.20
2022-09-24T05:58:56.458Z,61.20
2022-09-24T06:01:25.867Z,61.30
2022-09-24T06:03:56.331Z,61.40
2022-09-24T06:06:25.739Z,61.30
2022-09-24T06:08:55.243Z,61.20
2022-09-24T06:11:24.650Z,60.90
2022-09-24T06:13:53.507Z,61.00
2022-09-24T06:16:22.659Z,60.70
2022-09-24T06:18:51.597Z,60.70
2022-09-24T06:21:22.057Z,60.10
2022-09-24T06:23:51.032Z,59.80
2022-09-24T06:26:19.975Z,59.80
2022-09-24T06:28:48.768Z,59.80
2022-09-24T06:31:17.712Z,59.50
2022-09-24T06:33:46.706Z,59.60
2022-09-24T06:36:15.810Z,59.60
2022-09-24T06:38:46.341Z,59.50
2022-09-24T06:41:15.317Z,59.50
2022-09-24T06:43:43.997Z,59.50
2022-09-24T06:46:14.189Z,59.40
2022-09-24T06:48:43.207Z,59.40
2022-09-24T06:51:11.959Z,59.30
2022-09-24T06:53:41.398Z,59.30
2022-09-24T06:56:11.681Z,59.50
2022-09-24T06:58:40.414Z,59.70
2022-09-24T07:01:09.566Z,59.80
2022-09-24T07:03:39.526Z,59.90
2022-09-24T07:06:08.727Z,59.70
2022-09-24T07:08:37.462Z,59.50
2022-09-24T07:11:07.254Z,59.80
2022-09-24T07:13:37.443Z,58.80
2022-09-24T07:16:07.039Z,58.30
2022-09-24T07:18:37.552Z,57.70
2022-09-24T07:21:07.120Z,56.50
2022-09-24T07:23:35.842Z,56.30
2022-09-24T07:26:04.673Z,56.20
2022-09-24T07:28:33.577Z,56.50
2022-09-24T07:31:04.343Z,56.80
2022-09-24T07:33:33.638Z,56.40
2022-09-24T07:36:06.685Z,57.00
2022-09-24T07:38:36.388Z,55.40
2022-09-24T07:41:07.945Z,54.60
2022-09-24T07:43:37.276Z,54.60
2022-09-24T07:46:07.614Z,53.40
2022-09-24T07:48:36.602Z,52.40
2022-09-24T07:51:06.374Z,52.40
2022-09-24T07:53:35.308Z,50.60
2022-09-24T07:56:04.244Z,48.90
2022-09-24T07:58:33.206Z,48.80
2022-09-24T08:01:03.082Z,48.20
2022-09-24T08:03:34.101Z,48.20
2022-09-24T08:06:04.834Z,47.20
2022-09-24T08:08:33.571Z,47.00
2022-09-24T08:11:04.801Z,46.00
2022-09-24T08:13:34.355Z,45.60
2022-09-24T08:16:05.019Z,45.50
2022-09-24T08:18:35.413Z,45.20
2022-09-24T08:21:06.438Z,45.00
2022-09-24T08:23:36.301Z,43.90
2022-09-24T08:26:05.364Z,43.30
2022-09-24T08:28:34.742Z,42.90
2022-09-24T08:31:08.706Z,42.30
2022-09-24T08:33:39.708Z,42.10
2022-09-24T08:36:10.535Z,42.70
2022-09-24T08:38:39.370Z,43.40
2022-09-24T08:41:33.006Z,43.80
2022-09-24T08:44:06.407Z,43.90
2022-09-24T08:46:57.879Z,44.00
2022-09-24T08:49:31.866Z,44.20
2022-09-24T08:52:07.547Z,45.10
2022-09-24T08:54:37.270Z,45.40
2022-09-24T08:57:14.052Z,46.40
2022-09-24T08:59:45.778Z,46.30
2022-09-24T09:02:31.898Z,46.90
2022-09-24T09:05:11.874Z,47.10
2022-09-24T09:07:48.211Z,47.60
2022-09-24T09:10:27.735Z,48.20
2022-09-24T09:13:02.185Z,48.10
2022-09-24T09:15:35.467Z,48.30
2022-09-24T09:18:11.694Z,48.70
2022-09-24T09:20:43.630Z,48.60
2022-09-24T09:23:17.783Z,48.80
2022-09-24T09:25:52.344Z,48.90
2022-09-24T09:28:22.124Z,49.00
2022-09-24T09:31:06.850Z,49.20
2022-09-24T09:33:53.924Z,50.10
2022-09-24T09:36:45.142Z,49.50
2022-09-24T09:39:28.448Z,49.50
2022-09-24T09:42:03.187Z,49.60
2022-09-24T09:44:38.319Z,49.50
2022-09-24T09:47:23.771Z,50.30
2022-09-24T09:49:54.975Z,49.80
2022-09-24T09:52:31.061Z,49.90
2022-09-24T09:55:00.263Z,50.00
2022-09-24T09:57:29.463Z,50.00
2022-09-24T09:59:58.816Z,50.10
2022-09-24T10:02:33.499Z,49.90
2022-09-24T10:05:04.843Z,49.60
2022-09-24T10:07:46.324Z,49.80
2022-09-24T10:10:20.145Z,49.60
2022-09-24T10:12:49.331Z,49.50
2022-09-24T10:15:19.959Z,49.90
2022-09-24T10:17:51.843Z,49.90
2022-09-24T10:20:26.034Z,50.10
2022-09-24T10:22:59.708Z,49.90
2022-09-24T10:25:30.912Z,49.80
2022-09-24T10:28:16.026Z,50.20
2022-09-24T10:30:54.519Z,49.40
2022-09-24T10:33:24.161Z,49.50
2022-09-24T10:36:06.895Z,49.70
2022-09-24T10:38:37.444Z,49.60
2022-09-24T10:41:17.199Z,50.00
2022-09-24T10:43:52.600Z,49.80
2022-09-24T10:47:05.394Z,49.90
2022-09-24T10:49:45.241Z,50.30
2022-09-24T10:52:37.502Z,50.10
2022-09-24T10:55:23.310Z,49.70
2022-09-24T10:58:04.006Z,49.60
2022-09-24T11:00:40.598Z,49.70
2022-09-24T11:03:47.841Z,49.70
2022-09-24T11:06:26.784Z,50.00
2022-09-24T11:09:06.017Z,50.10
2022-09-24T11:11:51.440Z,50.70
2022-09-24T11:14:37.394Z,50.20
2022-09-24T11:17:30.097Z,50.00
2022-09-24T11:20:12.444Z,50.10
2022-09-24T11:23:04.582Z,50.50
2022-09-24T11:25:40.661Z,50.60
2022-09-24T11:28:42.818Z,50.60
2022-09-24T11:31:21.465Z,50.70
2022-09-24T11:34:05.756Z,50.60
2022-09-24T11:36:48.031Z,50.80
2022-09-24T11:39:38.879Z,50.80
2022-09-24T11:42:21.940Z,50.70
2022-09-24T11:45:11.082Z,50.70
2022-09-24T11:48:06.058Z,50.60
2022-09-24T11:50:47.949Z,50.60
2022-09-24T11:53:26.311Z,50.70
2022-09-24T11:56:00.423Z,50.50
2022-09-24T11:58:32.906Z,50.40
2022-09-24T12:01:10.955Z,50.50
2022-09-24T12:03:48.014Z,50.50
2022-09-24T12:06:21.229Z,50.80
2022-09-24T12:08:56.558Z,50.70
2022-09-24T12:11:30.941Z,50.60
2022-09-24T12:14:06.747Z,51.30
2022-09-24T12:16:40.301Z,50.70
2022-09-24T12:19:18.451Z,50.90
2022-09-24T12:21:50.463Z,50.70
2022-09-24T12:24:24.918Z,50.70
2022-09-24T12:26:57.785Z,50.70
2022-09-24T12:29:54.841Z,50.50
2022-09-24T12:32:50.630Z,50.80
2022-09-24T12:35:30.704Z,51.00
2022-09-24T12:38:05.050Z,51.20
2022-09-24T12:40:55.241Z,51.30
2022-09-24T12:43:31.357Z,51.20
2022-09-24T12:46:03.234Z,51.40
2022-09-24T12:48:38.325Z,51.00
2022-09-24T12:51:10.210Z,51.20
2022-09-24T12:53:41.655Z,50.90
2022-09-24T12:56:12.143Z,51.00
2022-09-24T12:58:43.587Z,51.00
2022-09-24T13:01:15.530Z,49.40
2022-09-24T13:03:47.681Z,49.80
2022-09-24T13:06:24.163Z,49.70
2022-09-24T13:08:53.138Z,49.40
2022-09-24T13:11:31.419Z,48.80
2022-09-24T13:14:22.869Z,48.60
2022-09-24T13:16:56.634Z,48.30
2022-09-24T13:19:34.745Z,48.40
2022-09-24T13:22:04.667Z,48.60
2022-09-24T13:24:45.764Z,48.80
2022-09-24T13:27:35.390Z,48.70
2022-09-24T13:30:17.568Z,48.00
2022-09-24T13:32:54.643Z,48.20
2022-09-24T13:35:29.410Z,48.30
2022-09-24T13:38:06.412Z,48.40
2022-09-24T13:40:40.795Z,48.40
2022-09-24T13:43:15.661Z,48.30
2022-09-24T13:45:46.559Z,48.00
2022-09-24T13:48:26.167Z,48.50
2022-09-24T13:50:57.351Z,48.80
2022-09-24T13:53:31.342Z,48.90
2022-09-24T13:56:03.975Z,48.60
2022-09-24T13:58:34.564Z,48.60
2022-09-24T14:01:11.889Z,48.50
2022-09-24T14:03:42.485Z,48.50
2022-09-24T14:06:14.722Z,48.70
2022-09-24T14:08:47.344Z,49.10
2022-09-24T14:11:20.505Z,49.10
2022-09-24T14:13:49.435Z,49.20
2022-09-24T14:16:19.955Z,49.20
2022-09-24T14:18:49.536Z,49.20
2022-09-24T14:21:23.778Z,49.00
2022-09-24T14:23:58.901Z,48.80
2022-09-24T14:26:32.101Z,48.90
2022-09-24T14:29:05.582Z,48.90
2022-09-24T14:31:42.867Z,48.90
2022-09-24T14:34:25.284Z,48.90
2022-09-24T14:36:57.339Z,49.10
2022-09-24T14:39:29.181Z,48.90
2022-09-24T14:42:00.157Z,48.70
2022-09-24T14:44:31.117Z,48.50
2022-09-24T14:47:01.090Z,48.40
2022-09-24T14:49:33.469Z,48.50
2022-09-24T14:52:05.087Z,48.60
2022-09-24T14:54:35.589Z,48.50
2022-09-24T14:57:12.281Z,48.40
2022-09-24T14:59:41.603Z,48.70
2022-09-24T15:02:20.143Z,48.70
2022-09-24T15:04:53.030Z,48.50
2022-09-24T15:07:26.398Z,49.00
2022-09-24T15:09:58.082Z,48.40
2022-09-24T15:12:31.405Z,48.20
2022-09-24T15:15:02.544Z,48.30
2022-09-24T15:17:33.631Z,48.70
2022-09-24T15:20:03.464Z,48.70
2022-09-24T15:22:33.463Z,48.60
2022-09-24T15:25:02.918Z,48.60
2022-09-24T15:27:34.002Z,48.70
2022-09-24T15:30:04.830Z,48.60
2022-09-24T15:32:36.606Z,48.50
2022-09-24T15:35:09.404Z,48.40
2022-09-24T15:37:40.595Z,48.40
2022-09-24T15:40:18.705Z,48.50
2022-09-24T15:42:48.930Z,48.50
2022-09-24T15:45:21.465Z,48.80
2022-09-24T15:47:52.967Z,48.80
2022-09-24T15:50:23.591Z,48.60
2022-09-24T15:52:56.303Z,48.50
2022-09-24T15:55:25.526Z,48.60
2022-09-24T15:57:55.425Z,48.90
2022-09-24T16:00:27.125Z,48.90
2022-09-24T16:02:58.384Z,49.00
2022-09-24T16:05:27.591Z,49.10
2022-09-24T16:07:59.143Z,49.20
2022-09-24T16:10:28.661Z,49.30
2022-09-24T16:12:57.601Z,49.60
2022-09-24T16:15:26.887Z,49.60
2022-09-24T16:17:55.806Z,49.70
2022-09-24T16:20:25.079Z,49.80
2022-09-24T16:22:54.610Z,49.70
2022-09-24T16:25:25.135Z,49.80
2022-09-24T16:27:54.257Z,49.80
2022-09-24T16:30:23.770Z,49.90
2022-09-24T16:32:52.773Z,50.00
2022-09-24T16:35:22.057Z,50.20
2022-09-24T16:37:51.182Z,50.50
2022-09-24T16:40:20.281Z,50.70
2022-09-24T16:42:50.777Z,50.80
2022-09-24T16:45:19.985Z,51.00
2022-09-24T16:47:50.061Z,51.00
2022-09-24T16:50:20.095Z,51.00
2022-09-24T16:52:49.961Z,51.00
2022-09-24T16:55:18.865Z,51.30
2022-09-24T16:57:47.899Z,51.50
2022-09-24T17:00:18.532Z,51.60
2022-09-24T17:02:47.834Z,51.80
2022-09-24T17:05:16.900Z,51.80
2022-09-24T17:07:46.099Z,52.10
2022-09-24T17:10:15.654Z,52.00
2022-09-24T17:12:46.544Z,52.00
2022-09-24T17:15:20.920Z,52.40
2022-09-24T17:17:50.870Z,52.40
2022-09-24T17:20:20.530Z,52.40
2022-09-24T17:22:50.281Z,52.50
2022-09-24T17:25:19.299Z,52.60
2022-09-24T17:27:48.540Z,52.70
2022-09-24T17:30:19.218Z,53.60
2022-09-24T17:32:48.268Z,53.10
2022-09-24T17:35:17.387Z,53.30
2022-09-24T17:37:46.432Z,53.40
2022-09-24T17:40:23.626Z,53.30
2022-09-24T17:42:53.275Z,53.60
2022-09-24T17:45:23.702Z,53.60
2022-09-24T17:48:00.343Z,53.80
2022-09-24T17:50:29.831Z,54.00
2022-09-24T17:52:58.976Z,54.10
2022-09-24T17:55:28.720Z,54.40
2022-09-24T17:57:57.466Z,54.40
2022-09-24T18:00:27.763Z,54.50
2022-09-24T18:02:56.815Z,54.50
2022-09-24T18:05:25.714Z,54.60
2022-09-24T18:07:54.703Z,54.70
2022-09-24T18:10:23.770Z,54.70
2022-09-24T18:12:54.924Z,54.90
2022-09-24T18:15:25.406Z,55.10
2022-09-24T18:17:57.090Z,55.10
2022-09-24T18:20:26.273Z,55.30
2022-09-24T18:22:55.403Z,55.30
2022-09-24T18:25:27.331Z,55.40
2022-09-24T18:28:00.792Z,55.40
2022-09-24T18:30:30.368Z,55.30
2022-09-24T18:33:00.576Z,55.60
2022-09-24T18:35:29.841Z,55.60
2022-09-24T18:37:58.833Z,55.60
2022-09-24T18:40:28.061Z,55.70
2022-09-24T18:42:58.061Z,55.70
2022-09-24T18:45:28.171Z,55.90
2022-09-24T18:47:57.351Z,55.90
2022-09-24T18:50:28.388Z,56.10
2022-09-24T18:52:57.458Z,56.10
2022-09-24T18:55:26.639Z,56.20
2022-09-24T18:57:55.374Z,56.30
2022-09-24T19:00:42.828Z,56.30
2022-09-24T19:03:11.646Z,56.50
2022-09-24T19:05:42.131Z,56.50
2022-09-24T19:08:11.276Z,56.70
2022-09-24T19:10:40.390Z,56.80
2022-09-24T19:13:09.848Z,56.90
2022-09-24T19:15:40.059Z,56.90
2022-09-24T19:18:11.282Z,57.00
2022-09-24T19:20:42.774Z,57.20
2022-09-24T19:23:12.016Z,57.30
2022-09-24T19:25:42.799Z,57.50
2022-09-24T19:28:13.639Z,57.50
2022-09-24T19:30:44.873Z,57.60
2022-09-24T19:33:16.233Z,57.80
2022-09-24T19:35:56.154Z,57.90
2022-09-24T19:38:28.454Z,58.10
2022-09-24T19:41:02.121Z,58.00
2022-09-24T19:43:33.508Z,58.10
2022-09-24T19:46:05.057Z,58.10
2022-09-24T19:48:37.988Z,58.30
2022-09-24T19:51:10.139Z,58.40
2022-09-24T19:53:39.517Z,58.50
2022-09-24T19:56:09.717Z,58.50
2022-09-24T19:58:38.748Z,58.50
2022-09-24T20:01:13.538Z,58.60
2022-09-24T20:03:45.604Z,58.70
2022-09-24T20:06:17.799Z,58.70
2022-09-24T20:08:47.442Z,58.90
2022-09-24T20:11:20.384Z,58.90
2022-09-24T20:13:50.615Z,59.20
2022-09-24T20:16:21.529Z,59.30
2022-09-24T20:18:55.619Z,59.50
2022-09-24T20:21:27.698Z,59.50
2022-09-24T20:23:58.643Z,59.60
2022-09-24T20:26:45.411Z,59.60
2022-09-24T20:29:15.444Z,59.70
2022-09-24T20:31:51.600Z,59.70
2022-09-24T20:34:22.023Z,59.70
2022-09-24T20:36:52.264Z,59.70
2022-09-24T20:39:22.129Z,59.80
2022-09-24T20:41:50.926Z,59.90
2022-09-24T20:44:21.364Z,59.90
2022-09-24T20:46:50.287Z,60.10
2022-09-24T20:49:22.986Z,60.20
2022-09-24T20:51:57.460Z,60.20
2022-09-24T20:54:28.097Z,60.40
2022-09-24T20:56:56.979Z,60.40
2022-09-24T20:59:27.149Z,60.60
2022-09-24T21:01:56.086Z,60.60
2022-09-24T21:04:25.406Z,60.70
2022-09-24T21:06:55.683Z,60.90
2022-09-24T21:09:24.898Z,61.00
2022-09-24T21:11:54.418Z,61.00
2022-09-24T21:14:24.427Z,61.10
2022-09-24T21:16:54.979Z,61.00
2022-09-24T21:19:24.816Z,60.90
2022-09-24T21:21:54.908Z,60.90
2022-09-24T21:24:29.068Z,61.20
2022-09-24T21:27:00.275Z,62.10
2022-09-24T21:29:29.133Z,61.40
2022-09-24T21:31:57.934Z,61.40
2022-09-24T21:34:29.127Z,61.50
2022-09-24T21:36:59.979Z,61.60
2022-09-24T21:39:29.013Z,61.70
2022-09-24T21:41:59.246Z,61.80
2022-09-24T21:44:33.944Z,61.70
2022-09-24T21:47:03.057Z,61.70
2022-09-24T21:49:36.481Z,61.80
2022-09-24T21:52:07.370Z,61.80
2022-09-24T21:54:36.555Z,62.00
2022-09-24T21:57:05.619Z,62.10
2022-09-24T22:00:06.765Z,62.10
2022-09-24T22:02:37.085Z,62.20
2022-09-24T22:05:08.693Z,62.20
2022-09-24T22:07:39.429Z,62.30
2022-09-24T22:10:10.270Z,62.40
2022-09-24T22:12:39.648Z,62.50
2022-09-24T22:15:09.153Z,62.60
2022-09-24T22:17:38.255Z,62.70
2022-09-24T22:20:08.464Z,62.80
2022-09-24T22:22:38.635Z,63.00
2022-09-24T22:25:09.075Z,63.10
2022-09-24T22:27:37.897Z,63.00
2022-09-24T22:30:07.931Z,63.20
2022-09-24T22:32:38.315Z,63.40
2022-09-24T22:35:25.653Z,63.30
2022-09-24T22:37:57.060Z,63.50
2022-09-24T22:40:26.961Z,63.40
2022-09-24T22:42:56.163Z,63.60
2022-09-24T22:45:25.121Z,63.70
2022-09-24T22:47:56.772Z,63.90
2022-09-24T22:50:25.819Z,63.90
2022-09-24T22:52:56.448Z,64.00
2022-09-24T22:55:25.296Z,64.00
2022-09-24T22:57:54.574Z,64.10
2022-09-24T23:00:23.598Z,64.30
2022-09-24T23:02:52.416Z,64.30
2022-09-24T23:05:21.447Z,64.30
2022-09-24T23:07:51.180Z,64.40
2022-09-24T23:10:21.806Z,64.40
2022-09-24T23:12:50.991Z,64.60
2022-09-24T23:15:20.293Z,64.60
2022-09-24T23:17:49.036Z,64.70
2022-09-24T23:20:18.432Z,64.70
2022-09-24T23:22:47.237Z,64.80
2022-09-24T23:25:16.138Z,65.00
2022-09-24T23:27:46.479Z,65.10
2022-09-24T23:30:15.633Z,65.30
2022-09-24T23:32:44.518Z,65.30
2022-09-24T23:35:13.515Z,65.30
2022-09-24T23:37:42.182Z,65.50
2022-09-24T23:40:11.346Z,65.50
2022-09-24T23:42:40.896Z,65.50
2022-09-24T23:45:12.049Z,65.60
2022-09-24T23:47:41.368Z,65.70
2022-09-24T23:50:10.587Z,65.70
2022-09-24T23:52:39.371Z,65.70
2022-09-24T23:55:08.775Z,65.70
2022-09-24T23:57:37.528Z,65.70
